createdAt,value
2023-05-15T00:00:13.044Z,4.32
2023-05-15T00:02:39.275Z,4.00
2023-05-15T00:05:08.233Z,3.75
2023-05-15T00:07:35.759Z,3.72
2023-05-15T00:10:02.108Z,3.22
2023-05-15T00:12:28.284Z,3.30
2023-05-15T00:14:54.206Z,3.80
2023-05-15T00:17:20.094Z,3.42
2023-05-15T00:19:46.140Z,3.28
2023-05-15T00:22:12.034Z,3.38
2023-05-15T00:24:37.809Z,3.10
2023-05-15T00:27:03.863Z,4.28
2023-05-15T00:29:29.783Z,3.92
2023-05-15T00:31:55.832Z,3.85
2023-05-15T00:34:22.097Z,4.35
2023-05-15T00:36:48.130Z,4.90
2023-05-15T00:39:13.961Z,4.32
2023-05-15T00:41:41.160Z,9.70
2023-05-15T00:44:08.949Z,3.28
2023-05-15T00:46:35.673Z,3.35
2023-05-15T00:49:04.126Z,3.70
2023-05-15T00:51:30.402Z,3.67
2023-05-15T00:53:58.107Z,3.65
2023-05-15T00:56:24.760Z,3.47
2023-05-15T00:58:53.063Z,3.40
2023-05-15T01:01:19.216Z,7.03
2023-05-15T01:03:45.331Z,3.33
2023-05-15T01:06:11.711Z,6.60
2023-05-15T01:08:42.952Z,4.05
2023-05-15T01:11:10.952Z,5.20
2023-05-15T01:13:36.805Z,4.32
2023-05-15T01:16:03.334Z,4.45
2023-05-15T01:18:31.729Z,3.50
2023-05-15T01:21:19.844Z,4.38
2023-05-15T01:24:08.288Z,3.63
2023-05-15T01:26:55.641Z,3.60
2023-05-15T01:29:31.859Z,3.42
2023-05-15T01:32:06.184Z,6.88
2023-05-15T01:34:45.260Z,3.50
2023-05-15T01:37:13.829Z,3.72
2023-05-15T01:39:42.211Z,3.83
2023-05-15T01:42:10.116Z,3.42
2023-05-15T01:44:39.903Z,3.20
2023-05-15T01:47:17.213Z,8.73
2023-05-15T01:49:44.849Z,4.63
2023-05-15T01:52:35.913Z,3.35
2023-05-15T01:55:03.664Z,3.20
2023-05-15T01:57:30.968Z,4.03
2023-05-15T01:59:58.040Z,5.90
2023-05-15T02:02:26.058Z,3.67
2023-05-15T02:04:52.486Z,3.60
2023-05-15T02:07:19.565Z,3.42
2023-05-15T02:09:46.899Z,3.25
2023-05-15T02:12:13.104Z,3.97
2023-05-15T02:14:40.576Z,3.67
2023-05-15T02:17:07.028Z,4.30
2023-05-15T02:19:32.879Z,4.85
2023-05-15T02:21:58.937Z,5.82
2023-05-15T02:24:24.814Z,3.72
2023-05-15T02:27:01.827Z,3.50
2023-05-15T02:29:27.562Z,4.32
2023-05-15T02:31:53.422Z,5.32
2023-05-15T02:34:27.568Z,4.25
2023-05-15T02:36:56.577Z,5.10
2023-05-15T02:39:24.346Z,3.97
2023-05-15T02:41:51.636Z,3.90
2023-05-15T02:44:17.800Z,3.35
2023-05-15T02:46:43.887Z,3.95
2023-05-15T02:49:10.830Z,4.35
2023-05-15T02:51:36.800Z,4.10
2023-05-15T02:54:03.406Z,5.85
2023-05-15T02:56:29.163Z,5.25
2023-05-15T02:58:55.183Z,4.90
2023-05-15T03:01:21.257Z,5.43
2023-05-15T03:03:47.352Z,5.70
2023-05-15T03:06:13.192Z,5.53
2023-05-15T03:08:38.997Z,5.40
2023-05-15T03:11:05.546Z,5.43
2023-05-15T03:13:31.346Z,9.38
2023-05-15T03:15:57.289Z,6.20
2023-05-15T03:18:23.038Z,7.82
2023-05-15T03:20:51.935Z,6.38
2023-05-15T03:23:18.148Z,7.55
2023-05-15T03:25:44.047Z,7.78
2023-05-15T03:28:10.777Z,6.97
2023-05-15T03:30:36.893Z,8.75
2023-05-15T03:33:03.261Z,9.20
2023-05-15T03:35:31.427Z,8.57
2023-05-15T03:37:57.446Z,7.90
2023-05-15T03:40:23.254Z,7.80
2023-05-15T03:42:52.636Z,8.90
2023-05-15T03:45:19.411Z,9.15
2023-05-15T03:47:45.337Z,8.00
2023-05-15T03:50:11.288Z,8.45
2023-05-15T03:52:37.469Z,8.13
2023-05-15T03:55:04.519Z,8.60
2023-05-15T03:57:34.811Z,9.10
2023-05-15T04:00:03.272Z,16.17
2023-05-15T04:02:29.091Z,10.50
2023-05-15T04:04:54.947Z,7.32
2023-05-15T04:07:20.697Z,8.90
2023-05-15T04:09:46.529Z,8.63
2023-05-15T04:12:12.284Z,8.65
2023-05-15T04:14:38.113Z,8.10
2023-05-15T04:17:03.995Z,8.20
2023-05-15T04:19:29.824Z,8.30
2023-05-15T04:21:55.900Z,7.30
2023-05-15T04:24:21.669Z,8.32
2023-05-15T04:26:47.729Z,6.35
2023-05-15T04:29:13.556Z,5.78
2023-05-15T04:31:39.567Z,8.38
2023-05-15T04:34:05.479Z,8.30
2023-05-15T04:36:32.861Z,8.63
2023-05-15T04:38:58.764Z,9.35
2023-05-15T04:41:24.775Z,10.05
2023-05-15T04:43:51.067Z,10.82
2023-05-15T04:46:16.843Z,9.52
2023-05-15T04:48:42.650Z,10.82
2023-05-15T04:51:08.489Z,11.52
2023-05-15T04:53:34.305Z,10.90
2023-05-15T04:56:00.159Z,11.60
2023-05-15T04:58:25.958Z,12.90
2023-05-15T05:00:51.789Z,14.70
2023-05-15T05:03:17.717Z,13.82
2023-05-15T05:05:43.853Z,12.05
2023-05-15T05:08:09.677Z,14.60
2023-05-15T05:10:35.592Z,11.95
2023-05-15T05:13:01.448Z,11.98
2023-05-15T05:15:27.357Z,13.20
2023-05-15T05:17:53.493Z,16.65
2023-05-15T05:20:19.674Z,23.88
2023-05-15T05:22:45.524Z,29.42
2023-05-15T05:25:11.377Z,33.67
2023-05-15T05:27:37.189Z,32.08
2023-05-15T05:30:03.214Z,34.83
2023-05-15T05:32:29.150Z,39.83
2023-05-15T05:34:55.006Z,37.28
2023-05-15T05:37:20.855Z,32.17
2023-05-15T05:39:46.734Z,35.92
2023-05-15T05:42:12.565Z,34.38
2023-05-15T05:44:38.366Z,31.92
2023-05-15T05:47:04.256Z,33.30
2023-05-15T05:49:30.076Z,58.55
2023-05-15T05:51:55.922Z,33.38
2023-05-15T05:54:21.725Z,31.90
2023-05-15T05:56:47.629Z,30.88
2023-05-15T05:59:13.482Z,29.10
2023-05-15T06:01:39.379Z,35.80
2023-05-15T06:04:05.237Z,31.38
2023-05-15T06:06:34.667Z,38.15
2023-05-15T06:09:00.544Z,34.58
2023-05-15T06:11:26.410Z,39.33
2023-05-15T06:13:52.346Z,31.42
2023-05-15T06:16:18.193Z,47.78
2023-05-15T06:18:44.135Z,33.55
2023-05-15T06:21:10.301Z,34.80
2023-05-15T06:23:36.606Z,33.97
2023-05-15T06:26:03.714Z,33.80
2023-05-15T06:28:29.487Z,39.90
2023-05-15T06:30:55.334Z,35.15
2023-05-15T06:33:21.462Z,32.58
2023-05-15T06:35:47.323Z,36.10
2023-05-15T06:38:13.075Z,36.53
2023-05-15T06:40:38.897Z,34.28
2023-05-15T06:43:04.814Z,36.90
2023-05-15T06:45:30.726Z,36.55
2023-05-15T06:47:58.538Z,41.25
2023-05-15T06:50:25.841Z,31.08
2023-05-15T06:52:51.599Z,36.55
2023-05-15T06:55:17.463Z,35.35
2023-05-15T06:57:43.250Z,33.95
2023-05-15T07:00:09.543Z,37.75
2023-05-15T07:02:35.351Z,42.03
2023-05-15T07:05:01.239Z,39.70
2023-05-15T07:07:27.104Z,41.33
2023-05-15T07:09:52.922Z,42.45
2023-05-15T07:12:18.774Z,42.60
2023-05-15T07:14:44.701Z,50.88
2023-05-15T07:17:10.523Z,46.38
2023-05-15T07:19:36.324Z,53.25
2023-05-15T07:22:05.184Z,53.00
2023-05-15T07:24:30.977Z,62.25
2023-05-15T07:26:58.520Z,60.63
2023-05-15T07:29:24.979Z,56.65
2023-05-15T07:31:50.913Z,64.20
2023-05-15T07:34:16.837Z,63.70
2023-05-15T07:36:42.688Z,65.72
2023-05-15T07:39:08.567Z,66.30
2023-05-15T07:41:34.379Z,66.15
2023-05-15T07:44:00.137Z,62.53
2023-05-15T07:46:26.482Z,67.10
2023-05-15T07:48:52.320Z,68.60
2023-05-15T07:51:18.104Z,66.93
2023-05-15T07:53:43.855Z,65.90
2023-05-15T07:56:09.979Z,63.13
2023-05-15T07:58:37.593Z,68.03
2023-05-15T08:01:04.070Z,67.35
2023-05-15T08:03:30.011Z,63.10
2023-05-15T08:05:55.833Z,60.08
2023-05-15T08:08:21.698Z,63.28
2023-05-15T08:10:47.879Z,64.55
2023-05-15T08:13:13.703Z,57.53
2023-05-15T08:15:39.719Z,60.47
2023-05-15T08:18:09.419Z,56.00
2023-05-15T08:20:35.649Z,54.20
2023-05-15T08:23:01.393Z,62.67
2023-05-15T08:25:27.362Z,53.13
2023-05-15T08:27:53.265Z,59.20
2023-05-15T08:30:19.071Z,57.92
2023-05-15T08:32:45.589Z,61.30
2023-05-15T08:35:11.480Z,62.90
2023-05-15T08:37:37.387Z,54.45
2023-05-15T08:40:09.529Z,59.42
2023-05-15T08:42:44.068Z,62.85
2023-05-15T08:45:11.417Z,57.83
2023-05-15T08:47:39.653Z,57.17
2023-05-15T08:50:13.507Z,63.80
2023-05-15T08:52:44.951Z,54.03
2023-05-15T08:55:11.107Z,57.80
2023-05-15T08:57:38.110Z,53.60
2023-05-15T09:00:09.015Z,54.22
2023-05-15T09:02:36.648Z,57.60
2023-05-15T09:05:03.121Z,55.95
2023-05-15T09:07:30.498Z,56.78
2023-05-15T09:09:57.494Z,52.50
2023-05-15T09:12:25.551Z,55.30
2023-05-15T09:14:51.858Z,51.35
2023-05-15T09:17:17.621Z,58.45
2023-05-15T09:19:43.626Z,53.38
2023-05-15T09:22:25.008Z,50.15
2023-05-15T09:24:57.375Z,60.70
2023-05-15T09:27:23.554Z,56.90
2023-05-15T09:29:53.610Z,62.08
2023-05-15T09:32:19.958Z,67.90
2023-05-15T09:34:45.987Z,62.22
2023-05-15T09:37:28.577Z,54.65
2023-05-15T09:39:54.388Z,54.40
2023-05-15T09:42:20.290Z,64.55
2023-05-15T09:44:46.081Z,61.95
2023-05-15T09:47:13.667Z,58.92
2023-05-15T09:49:43.802Z,59.70
2023-05-15T09:52:10.155Z,58.70
2023-05-15T09:54:37.100Z,53.35
2023-05-15T09:57:10.788Z,57.95
2023-05-15T09:59:43.349Z,53.97
2023-05-15T10:02:13.341Z,56.25
2023-05-15T10:04:39.189Z,59.03
2023-05-15T10:07:07.418Z,54.22
2023-05-15T10:09:33.232Z,43.20
2023-05-15T10:11:59.279Z,45.70
2023-05-15T10:14:25.938Z,41.85
2023-05-15T10:16:52.417Z,50.08
2023-05-15T10:19:21.386Z,52.08
2023-05-15T10:21:47.905Z,50.30
2023-05-15T10:24:15.781Z,46.55
2023-05-15T10:26:42.688Z,51.50
2023-05-15T10:29:13.912Z,40.45
2023-05-15T10:31:40.672Z,43.63
2023-05-15T10:34:07.960Z,43.33
2023-05-15T10:36:36.052Z,42.65
2023-05-15T10:39:06.402Z,38.47
2023-05-15T10:41:37.271Z,35.67
2023-05-15T10:44:03.178Z,37.30
2023-05-15T10:46:32.695Z,40.72
2023-05-15T10:48:59.870Z,35.30
2023-05-15T10:51:26.914Z,31.67
2023-05-15T10:53:53.534Z,32.47
2023-05-15T10:56:19.721Z,28.23
2023-05-15T10:58:50.011Z,31.48
2023-05-15T11:01:27.162Z,29.90
2023-05-15T11:04:03.970Z,35.83
2023-05-15T11:06:33.062Z,32.78
2023-05-15T11:09:27.753Z,28.98
2023-05-15T11:11:56.147Z,33.33
2023-05-15T11:14:26.558Z,34.20
2023-05-15T11:16:52.372Z,32.88
2023-05-15T11:19:27.881Z,33.00
2023-05-15T11:22:05.884Z,29.80
2023-05-15T11:24:46.288Z,27.63
2023-05-15T11:27:16.077Z,25.55
2023-05-15T11:30:06.959Z,24.83
2023-05-15T11:32:48.396Z,27.88
2023-05-15T11:35:32.537Z,20.88
2023-05-15T11:38:03.939Z,24.20
2023-05-15T11:40:44.415Z,17.80
2023-05-15T11:43:36.532Z,17.83
2023-05-15T11:46:02.304Z,18.63
2023-05-15T11:48:34.760Z,18.40
2023-05-15T11:51:01.562Z,17.75
2023-05-15T11:53:29.646Z,17.25
2023-05-15T11:55:55.673Z,17.45
2023-05-15T11:58:23.660Z,16.58
2023-05-15T12:00:51.304Z,15.48
2023-05-15T12:03:23.390Z,15.35
2023-05-15T12:05:59.212Z,14.38
2023-05-15T12:08:36.908Z,24.10
2023-05-15T12:11:03.874Z,16.25
2023-05-15T12:13:30.872Z,15.80
2023-05-15T12:15:57.190Z,19.83
2023-05-15T12:18:25.317Z,15.40
2023-05-15T12:20:52.444Z,21.23
2023-05-15T12:23:21.863Z,16.42
2023-05-15T12:25:50.472Z,15.85
2023-05-15T12:28:16.765Z,15.45
2023-05-15T12:30:43.034Z,18.70
2023-05-15T12:33:10.070Z,16.33
2023-05-15T12:35:41.493Z,14.75
2023-05-15T12:38:07.596Z,14.88
2023-05-15T12:40:34.625Z,10.38
2023-05-15T12:43:05.668Z,15.60
2023-05-15T12:45:32.524Z,9.80
2023-05-15T12:47:58.385Z,10.88
2023-05-15T12:50:25.462Z,14.57
2023-05-15T12:52:52.729Z,8.68
2023-05-15T12:55:26.097Z,11.65
2023-05-15T12:57:53.597Z,9.68
2023-05-15T13:00:21.827Z,9.45
2023-05-15T13:02:53.026Z,10.80
2023-05-15T13:05:19.418Z,8.43
2023-05-15T13:07:45.331Z,9.40
2023-05-15T13:10:11.969Z,10.85
2023-05-15T13:12:39.699Z,7.57
2023-05-15T13:15:06.393Z,8.43
2023-05-15T13:17:36.096Z,9.15
2023-05-15T13:20:01.879Z,7.25
2023-05-15T13:22:28.129Z,5.68
2023-05-15T13:24:55.945Z,11.27
2023-05-15T13:27:21.746Z,9.40
2023-05-15T13:29:47.504Z,9.48
2023-05-15T13:32:13.710Z,7.15
2023-05-15T13:34:39.486Z,8.05
2023-05-15T13:37:05.382Z,9.40
2023-05-15T13:39:31.123Z,10.57
2023-05-15T13:41:57.762Z,9.88
2023-05-15T13:44:23.545Z,7.68
2023-05-15T13:46:49.365Z,9.65
2023-05-15T13:49:15.120Z,5.97
2023-05-15T13:51:40.909Z,6.78
2023-05-15T13:54:06.700Z,8.60
2023-05-15T13:56:32.521Z,6.25
2023-05-15T13:58:58.380Z,8.57
2023-05-15T14:01:24.310Z,8.82
2023-05-15T14:03:50.194Z,7.05
2023-05-15T14:06:15.991Z,6.53
2023-05-15T14:08:41.845Z,8.85
2023-05-15T14:11:08.049Z,8.95
2023-05-15T14:13:33.959Z,8.50
2023-05-15T14:15:59.877Z,11.60
2023-05-15T14:18:25.738Z,7.00
2023-05-15T14:20:51.781Z,6.45
2023-05-15T14:23:18.476Z,5.90
2023-05-15T14:25:44.298Z,5.80
2023-05-15T14:28:10.644Z,4.93
2023-05-15T14:30:36.906Z,8.57
2023-05-15T14:33:02.800Z,6.00
2023-05-15T14:35:28.684Z,6.35
2023-05-15T14:37:54.487Z,4.00
2023-05-15T14:40:20.351Z,3.95
2023-05-15T14:42:46.152Z,6.80
2023-05-15T14:45:11.996Z,4.97
2023-05-15T14:47:38.718Z,5.60
2023-05-15T14:50:05.012Z,5.05
2023-05-15T14:52:30.858Z,3.65
2023-05-15T14:55:08.649Z,3.55
2023-05-15T14:57:35.468Z,6.22
2023-05-15T15:00:01.504Z,5.55
2023-05-15T15:02:27.411Z,5.60
2023-05-15T15:04:53.404Z,4.90
2023-05-15T15:07:19.996Z,6.53
2023-05-15T15:09:45.862Z,6.88
2023-05-15T15:12:11.661Z,4.03
2023-05-15T15:14:37.524Z,4.60
2023-05-15T15:17:03.453Z,6.00
2023-05-15T15:19:29.324Z,5.47
2023-05-15T15:21:55.198Z,5.38
2023-05-15T15:24:21.000Z,5.63
2023-05-15T15:26:46.862Z,5.38
2023-05-15T15:29:12.688Z,4.95
2023-05-15T15:31:38.595Z,5.15
2023-05-15T15:34:05.739Z,7.07
2023-05-15T15:36:32.133Z,7.45
2023-05-15T15:38:58.044Z,9.35
2023-05-15T15:41:23.941Z,4.95
2023-05-15T15:43:49.924Z,5.97
2023-05-15T15:46:15.812Z,6.10
2023-05-15T15:48:41.701Z,7.57
2023-05-15T15:51:07.567Z,10.48
2023-05-15T15:53:34.250Z,9.80
2023-05-15T15:56:00.726Z,14.88
2023-05-15T15:58:26.505Z,11.70
2023-05-15T16:00:52.392Z,12.50
2023-05-15T16:03:18.708Z,12.73
2023-05-15T16:05:44.615Z,12.00
2023-05-15T16:08:10.394Z,14.75
2023-05-15T16:10:36.376Z,13.65
2023-05-15T16:13:02.207Z,15.20
2023-05-15T16:15:28.056Z,12.88
2023-05-15T16:17:55.047Z,12.45
2023-05-15T16:20:21.567Z,15.48
2023-05-15T16:22:47.331Z,14.07
2023-05-15T16:25:13.357Z,12.13
2023-05-15T16:27:39.137Z,13.23
2023-05-15T16:30:05.534Z,14.23
2023-05-15T16:32:33.062Z,13.55
2023-05-15T16:34:58.935Z,14.80
2023-05-15T16:37:24.871Z,14.82
2023-05-15T16:39:51.204Z,12.00
2023-05-15T16:42:17.089Z,10.18
2023-05-15T16:44:42.901Z,11.70
2023-05-15T16:47:08.744Z,10.55
2023-05-15T16:49:34.591Z,9.98
2023-05-15T16:52:00.425Z,10.07
2023-05-15T16:54:26.188Z,8.98
2023-05-15T16:56:52.043Z,10.75
2023-05-15T16:59:17.976Z,8.00
2023-05-15T17:01:43.823Z,8.35
2023-05-15T17:04:09.765Z,8.55
2023-05-15T17:06:35.677Z,8.35
2023-05-15T17:09:01.652Z,9.45
2023-05-15T17:11:27.461Z,17.65
2023-05-15T17:13:53.297Z,8.32
2023-05-15T17:16:19.126Z,8.88
2023-05-15T17:18:45.015Z,9.50
2023-05-15T17:21:10.841Z,8.30
2023-05-15T17:23:36.932Z,7.53
2023-05-15T17:26:03.525Z,8.27
2023-05-15T17:28:29.374Z,9.73
2023-05-15T17:30:55.188Z,7.65
2023-05-15T17:33:21.014Z,7.13
2023-05-15T17:35:46.863Z,9.35
2023-05-15T17:38:12.801Z,10.23
2023-05-15T17:40:38.670Z,10.35
2023-05-15T17:43:04.505Z,11.75
2023-05-15T17:45:30.330Z,9.75
2023-05-15T17:48:01.985Z,9.60
2023-05-15T17:50:27.876Z,10.02
2023-05-15T17:52:53.681Z,14.23
2023-05-15T17:55:19.664Z,12.13
2023-05-15T17:57:45.449Z,13.50
2023-05-15T18:00:11.817Z,18.17
2023-05-15T18:02:37.692Z,16.85
2023-05-15T18:05:03.726Z,16.83
2023-05-15T18:07:29.676Z,18.42
2023-05-15T18:09:55.482Z,24.15
2023-05-15T18:12:21.455Z,18.30
2023-05-15T18:14:47.274Z,17.67
2023-05-15T18:17:13.121Z,16.42
2023-05-15T18:19:39.368Z,21.35
2023-05-15T18:22:05.254Z,17.02
2023-05-15T18:24:33.500Z,23.30
2023-05-15T18:26:59.305Z,16.30
2023-05-15T18:29:25.332Z,22.55
2023-05-15T18:31:51.361Z,21.27
2023-05-15T18:34:17.314Z,19.35
2023-05-15T18:36:43.383Z,17.63
2023-05-15T18:39:09.266Z,17.88
2023-05-15T18:41:38.241Z,19.60
2023-05-15T18:44:04.237Z,17.58
2023-05-15T18:46:31.032Z,19.23
2023-05-15T18:48:56.934Z,17.40
2023-05-15T18:51:23.376Z,19.98
2023-05-15T18:53:49.828Z,17.15
2023-05-15T18:56:15.647Z,16.98
2023-05-15T18:58:41.580Z,16.42
2023-05-15T19:01:07.595Z,16.70
2023-05-15T19:03:36.681Z,16.65
2023-05-15T19:06:02.685Z,21.38
2023-05-15T19:08:28.600Z,20.73
2023-05-15T19:10:54.443Z,17.63
2023-05-15T19:13:20.422Z,16.27
2023-05-15T19:15:51.040Z,14.48
2023-05-15T19:18:17.562Z,15.40
2023-05-15T19:20:43.771Z,21.77
2023-05-15T19:23:09.862Z,15.23
2023-05-15T19:25:35.927Z,14.77
2023-05-15T19:28:01.889Z,15.77
2023-05-15T19:30:27.888Z,18.50
2023-05-15T19:32:53.894Z,16.02
2023-05-15T19:35:19.938Z,18.42
2023-05-15T19:37:45.965Z,18.00
2023-05-15T19:40:12.343Z,17.10
2023-05-15T19:42:38.151Z,17.20
2023-05-15T19:45:04.509Z,21.17
2023-05-15T19:47:30.340Z,19.73
2023-05-15T19:49:56.266Z,19.63
2023-05-15T19:52:22.199Z,20.38
2023-05-15T19:54:48.290Z,21.38
2023-05-15T19:57:14.713Z,20.67
2023-05-15T19:59:40.709Z,26.83
2023-05-15T20:02:09.725Z,24.02
2023-05-15T20:04:36.264Z,26.20
2023-05-15T20:07:03.462Z,24.75
2023-05-15T20:09:29.677Z,23.38
2023-05-15T20:11:55.731Z,24.80
2023-05-15T20:14:21.621Z,23.35
2023-05-15T20:16:47.487Z,27.63
2023-05-15T20:19:14.005Z,25.48
2023-05-15T20:21:39.903Z,23.65
2023-05-15T20:24:06.217Z,22.90
2023-05-15T20:26:32.090Z,27.17
2023-05-15T20:28:57.974Z,24.27
2023-05-15T20:31:23.825Z,23.10
2023-05-15T20:33:50.093Z,22.60
2023-05-15T20:36:16.062Z,23.85
2023-05-15T20:38:43.393Z,24.83
2023-05-15T20:41:09.171Z,23.30
2023-05-15T20:43:35.002Z,23.17
2023-05-15T20:46:00.866Z,23.05
2023-05-15T20:48:26.781Z,22.48
2023-05-15T20:50:53.087Z,24.08
2023-05-15T20:53:18.918Z,24.42
2023-05-15T20:55:45.073Z,23.52
2023-05-15T20:58:10.929Z,22.58
2023-05-15T21:00:36.898Z,23.23
2023-05-15T21:03:02.747Z,23.80
2023-05-15T21:05:28.653Z,19.92
2023-05-15T21:07:54.521Z,22.95
2023-05-15T21:10:20.319Z,21.02
2023-05-15T21:12:46.214Z,20.50
2023-05-15T21:15:12.132Z,20.50
2023-05-15T21:17:38.485Z,21.15
2023-05-15T21:20:04.916Z,21.38
2023-05-15T21:22:30.758Z,20.15
2023-05-15T21:24:57.013Z,21.58
2023-05-15T21:27:23.006Z,20.70
2023-05-15T21:29:48.801Z,20.90
2023-05-15T21:32:14.717Z,21.00
2023-05-15T21:34:40.719Z,20.85
2023-05-15T21:37:06.534Z,20.08
2023-05-15T21:39:32.447Z,20.38
2023-05-15T21:41:58.362Z,18.67
2023-05-15T21:44:24.177Z,19.67
2023-05-15T21:46:50.419Z,19.08
2023-05-15T21:49:16.236Z,20.98
2023-05-15T21:51:42.039Z,20.98
2023-05-15T21:54:07.876Z,19.50
2023-05-15T21:56:33.750Z,20.88
2023-05-15T21:58:59.516Z,23.08
2023-05-15T22:01:25.502Z,20.25
2023-05-15T22:03:51.424Z,20.95
2023-05-15T22:06:17.481Z,19.05
2023-05-15T22:08:43.398Z,21.50
2023-05-15T22:11:09.218Z,19.10
2023-05-15T22:13:35.104Z,19.10
2023-05-15T22:16:02.161Z,19.92
2023-05-15T22:18:28.740Z,19.90
2023-05-15T22:20:54.793Z,21.80
2023-05-15T22:23:20.688Z,19.52
2023-05-15T22:25:48.225Z,20.95
2023-05-15T22:28:15.524Z,20.25
2023-05-15T22:30:41.336Z,21.77
2023-05-15T22:33:07.201Z,21.02
2023-05-15T22:35:33.100Z,21.00
2023-05-15T22:37:58.863Z,20.27
2023-05-15T22:40:25.459Z,19.65
2023-05-15T22:42:51.618Z,22.42
2023-05-15T22:45:18.582Z,20.08
2023-05-15T22:47:44.874Z,19.63
2023-05-15T22:50:10.872Z,19.95
2023-05-15T22:52:37.487Z,19.48
2023-05-15T22:55:03.621Z,20.88
2023-05-15T22:57:29.465Z,23.60
2023-05-15T22:59:55.318Z,22.20
2023-05-15T23:02:21.569Z,20.10
2023-05-15T23:12:28.575Z,20.80
2023-05-15T23:14:54.513Z,19.35
2023-05-15T23:17:20.267Z,19.90
2023-05-15T23:19:46.014Z,20.92
2023-05-15T23:22:11.935Z,19.70
2023-05-15T23:24:37.674Z,19.83
2023-05-15T23:27:04.877Z,20.58
2023-05-15T23:29:33.049Z,20.67
2023-05-15T23:31:59.078Z,20.48
2023-05-15T23:34:25.091Z,20.38
2023-05-15T23:36:50.867Z,20.20
2023-05-15T23:39:16.762Z,20.05
2023-05-15T23:41:42.589Z,20.55
2023-05-15T23:44:08.369Z,20.75
2023-05-15T23:46:37.185Z,21.27
2023-05-15T23:49:03.849Z,21.02
2023-05-15T23:51:30.341Z,21.02
2023-05-15T23:53:56.107Z,20.45
2023-05-15T23:56:23.073Z,20.75
2023-05-15T23:58:49.099Z,19.77
